Time;durP1;ratioP1;P1;durP2;ratioP2;P2;SDS_P1;SDS_P2;PMS_P1;PMS_P2;Temp;Humidity;BMP_temperature;BMP_pressure;BME280_temperature;BME280_humidity;BME280_pressure;Samples;Min_cycle;Max_cycle;Signal;HPM_P1;HPM_P2
2021/11/02 00:01:27;;;;;;;40.92;12.63;;;14.70;99.90;;;;;;5094824;28;20039;-71
2021/11/02 00:03:53;;;;;;;28.20;12.02;;;14.70;99.90;;;;;;5094840;28;20028;-72
2021/11/02 00:06:20;;;;;;;34.75;13.07;;;14.70;99.90;;;;;;5088882;28;20032;-72
2021/11/02 00:08:45;;;;;;;41.55;12.52;;;14.60;99.90;;;;;;5090717;28;20066;-72
2021/11/02 00:11:11;;;;;;;45.35;11.38;;;14.60;99.90;;;;;;5094769;28;20028;-73
2021/11/02 00:13:39;;;;;;;32.25;12.27;;;14.60;99.90;;;;;;5094757;28;20028;-72
2021/11/02 00:16:10;;;;;;;38.75;13.05;;;14.60;99.90;;;;;;5092087;28;20036;-73
2021/11/02 00:18:37;;;;;;;25.92;11.38;;;14.60;99.90;;;;;;5042806;28;20036;-72
2021/11/02 00:21:03;;;;;;;35.15;13.23;;;14.50;99.90;;;;;;5067362;28;20047;-73
2021/11/02 00:23:36;;;;;;;28.90;11.35;;;14.60;99.90;;;;;;5074102;28;20033;-72
2021/11/02 00:26:04;;;;;;;37.28;10.75;;;14.50;99.90;;;;;;5074742;28;20020;-73
2021/11/02 00:28:30;;;;;;;29.15;9.45;;;14.50;99.90;;;;;;5074889;28;20044;-73
2021/11/02 00:30:55;;;;;;;32.80;10.80;;;14.50;99.90;;;;;;5066143;28;20045;-72
2021/11/02 00:33:21;;;;;;;26.10;9.18;;;14.50;99.90;;;;;;5074490;28;20086;-73
2021/11/02 00:35:47;;;;;;;21.13;9.10;;;14.40;99.90;;;;;;5071887;28;20125;-73
2021/11/02 00:38:12;;;;;;;35.00;9.95;;;14.50;99.90;;;;;;5074217;28;20118;-72
2021/11/02 00:40:40;;;;;;;25.77;9.52;;;14.50;99.90;;;;;;5073994;28;20025;-72
2021/11/02 00:43:08;;;;;;;34.08;9.40;;;14.40;99.90;;;;;;5074057;28;20112;-72
2021/11/02 00:45:35;;;;;;;23.98;8.93;;;14.40;99.90;;;;;;5073304;28;20047;-73
2021/11/02 00:48:04;;;;;;;26.02;9.70;;;14.40;99.90;;;;;;5066118;28;20048;-73
2021/11/02 00:50:35;;;;;;;20.85;9.95;;;14.40;99.90;;;;;;5073966;28;20060;-72
2021/11/02 00:53:02;;;;;;;29.10;9.75;;;14.40;99.90;;;;;;5073684;28;20029;-72
2021/11/02 00:55:28;;;;;;;30.42;10.20;;;14.40;99.90;;;;;;5073930;28;20111;-73
2021/11/02 00:57:54;;;;;;;26.20;9.63;;;14.40;99.90;;;;;;5073866;28;20322;-72
2021/11/02 01:00:24;;;;;;;20.55;9.10;;;14.30;99.90;;;;;;5068366;28;20122;-72
2021/11/02 01:02:50;;;;;;;27.65;8.80;;;14.30;99.90;;;;;;5073749;28;20028;-72
2021/11/02 01:05:17;;;;;;;20.65;9.38;;;14.30;99.90;;;;;;5072181;28;20393;-71
2021/11/02 01:07:43;;;;;;;20.55;9.30;;;14.30;99.90;;;;;;5070713;28;20036;-72
2021/11/02 01:10:19;;;;;;;24.73;8.60;;;14.30;99.90;;;;;;5065772;28;20037;-72
2021/11/02 01:12:47;;;;;;;23.70;9.00;;;14.30;99.90;;;;;;5073695;28;20123;-72
2021/11/02 01:15:15;;;;;;;16.05;7.78;;;14.40;99.90;;;;;;5064153;28;20148;-70
2021/11/02 01:17:41;;;;;;;20.45;7.82;;;14.30;99.90;;;;;;5073399;28;20476;-72
2021/11/02 01:20:11;;;;;;;22.73;9.60;;;14.40;99.90;;;;;;5081174;28;20052;-73
2021/11/02 01:22:37;;;;;;;17.77;8.35;;;14.30;99.90;;;;;;5093526;28;20432;-72
2021/11/02 01:25:03;;;;;;;21.58;9.07;;;14.30;99.90;;;;;;5087518;28;20469;-72
2021/11/02 01:27:29;;;;;;;25.63;8.93;;;14.30;99.90;;;;;;5088541;28;20040;-70
2021/11/02 01:29:55;;;;;;;33.35;10.70;;;14.20;99.90;;;;;;5090631;28;20028;-72
2021/11/02 01:32:21;;;;;;;21.25;8.95;;;14.20;99.90;;;;;;5093295;28;20055;-70
2021/11/02 01:34:46;;;;;;;24.70;9.52;;;14.20;99.90;;;;;;5093216;28;20434;-71
2021/11/02 01:37:12;;;;;;;27.83;9.45;;;14.20;99.90;;;;;;5093515;28;20028;-72
2021/11/02 01:39:38;;;;;;;21.60;9.80;;;14.20;99.90;;;;;;5093427;28;20063;-73
2021/11/02 01:42:04;;;;;;;24.27;10.48;;;14.20;99.90;;;;;;5093314;28;20017;-72
2021/11/02 01:44:30;;;;;;;23.42;9.35;;;14.10;99.90;;;;;;5090782;28;20488;-72
2021/11/02 01:46:56;;;;;;;23.38;9.95;;;14.10;99.90;;;;;;5092969;28;20039;-72
2021/11/02 01:49:23;;;;;;;22.38;9.70;;;14.10;99.90;;;;;;5092801;28;20028;-72
2021/11/02 01:51:49;;;;;;;16.52;9.00;;;14.10;99.90;;;;;;5093085;28;20040;-71
2021/11/02 01:54:17;;;;;;;38.13;9.20;;;14.00;99.90;;;;;;5092733;28;20028;-72
2021/11/02 01:56:48;;;;;;;27.13;9.07;;;14.10;99.90;;;;;;5093213;28;20047;-73
2021/11/02 01:59:15;;;;;;;16.42;8.32;;;14.00;99.90;;;;;;5086113;28;20028;-71
2021/11/02 02:01:56;;;;;;;21.65;8.73;;;14.00;99.90;;;;;;5092472;28;20039;-72
2021/11/02 02:04:37;;;;;;;16.00;8.40;;;14.00;99.90;;;;;;5092502;28;20532;-72
2021/11/02 02:07:25;;;;;;;22.85;7.28;;;14.00;99.90;;;;;;5083045;28;20423;-73
2021/11/02 02:10:15;;;;;;;21.52;7.43;;;13.90;99.90;;;;;;5034433;28;20115;-72
2021/11/02 02:12:44;;;;;;;15.90;5.35;;;14.00;99.90;;;;;;5090770;28;20138;-71
2021/11/02 02:15:16;;;;;;;20.15;5.90;;;13.90;99.90;;;;;;5078687;28;20016;-72
2021/11/02 02:17:53;;;;;;;15.10;4.60;;;13.90;99.90;;;;;;5080090;28;20032;-72
2021/11/02 02:20:57;;;;;;;10.00;4.22;;;13.90;99.90;;;;;;5066108;28;20032;-71
2021/11/02 02:23:48;;;;;;;14.90;3.83;;;13.90;99.90;;;;;;5073257;28;20036;-71
2021/11/02 02:26:20;;;;;;;18.17;5.20;;;13.90;99.90;;;;;;5090977;28;20035;-72
2021/11/02 02:28:52;;;;;;;8.70;3.80;;;13.90;99.90;;;;;;5089827;28;20127;-72
2021/11/02 02:31:19;;;;;;;23.10;4.32;;;13.90;99.90;;;;;;5084165;28;20392;-72
2021/11/02 02:33:47;;;;;;;18.95;3.70;;;13.90;99.90;;;;;;5088796;28;20566;-71
2021/11/02 02:36:16;;;;;;;26.48;4.65;;;13.80;99.90;;;;;;5092477;28;20063;-72
2021/11/02 02:38:45;;;;;;;15.02;4.40;;;13.80;99.90;;;;;;5092418;28;20388;-73
2021/11/02 02:41:11;;;;;;;13.45;4.25;;;13.80;99.90;;;;;;5092478;28;20104;-73
2021/11/02 02:43:41;;;;;;;13.15;4.00;;;13.70;99.90;;;;;;5070311;28;20040;-74
2021/11/02 02:46:09;;;;;;;18.50;4.68;;;13.70;99.90;;;;;;5083078;28;20496;-72
2021/11/02 02:48:39;;;;;;;13.77;4.57;;;13.60;99.90;;;;;;5073241;28;20090;-72
2021/11/02 02:51:05;;;;;;;14.98;5.47;;;13.50;99.90;;;;;;5074303;28;20028;-73
2021/11/02 02:53:32;;;;;;;24.00;4.75;;;13.50;99.90;;;;;;5078255;28;20041;-73
2021/11/02 02:56:00;;;;;;;16.77;5.55;;;13.40;99.90;;;;;;5092146;28;20048;-72
2021/11/02 02:58:35;;;;;;;29.35;6.63;;;13.40;99.90;;;;;;5092461;28;20427;-72
2021/11/02 03:01:01;;;;;;;17.13;6.00;;;13.30;99.90;;;;;;5088020;28;20032;-71
2021/11/02 03:03:27;;;;;;;15.93;6.18;;;13.30;99.90;;;;;;5059971;28;20040;-73
2021/11/02 03:05:53;;;;;;;23.83;6.95;;;13.20;99.90;;;;;;5072133;28;20109;-73
2021/11/02 03:08:20;;;;;;;22.30;6.22;;;13.20;99.90;;;;;;5082084;28;20041;-73
2021/11/02 03:10:49;;;;;;;29.65;6.80;;;13.20;99.90;;;;;;5089483;28;20031;-73
2021/11/02 03:13:17;;;;;;;16.23;7.07;;;13.10;99.90;;;;;;5096307;28;20078;-73
2021/11/02 03:15:53;;;;;;;27.83;7.18;;;13.10;99.90;;;;;;5081705;28;20078;-72
2021/11/02 03:49:06;;;;;;;8.68;3.22;;;12.70;99.90;;;;;;5068046;28;20051;-72
2021/11/02 03:51:49;;;;;;;12.75;2.95;;;12.70;99.90;;;;;;5095287;28;20036;-72
2021/11/02 03:54:44;;;;;;;14.25;2.80;;;12.70;99.90;;;;;;5077449;28;20148;-72
2021/11/02 03:58:01;;;;;;;13.18;3.38;;;12.70;99.90;;;;;;5084336;28;20024;-73
2021/11/02 04:30:24;;;;;;;7.88;1.67;;;12.60;99.90;;;;;;5080262;28;20029;-71
2021/11/02 05:52:06;;;;;;;3.70;1.08;;;12.50;99.90;;;;;;5082037;28;20024;-72
2021/11/02 05:59:26;;;;;;;10.77;1.20;;;12.50;99.90;;;;;;5092803;28;20053;-74
2021/11/02 06:30:10;;;;;;;5.78;1.35;;;12.70;99.90;;;;;;5092467;28;20182;-73
2021/11/02 06:32:39;;;;;;;5.55;1.60;;;12.70;99.90;;;;;;5072123;28;20027;-72
2021/11/02 07:15:54;;;;;;;5.20;1.30;;;12.70;99.90;;;;;;5073528;28;20036;-71
2021/11/02 07:18:27;;;;;;;2.95;1.02;;;12.70;99.90;;;;;;5089441;28;20062;-72
2021/11/02 07:26:16;;;;;;;4.05;1.52;;;12.80;99.90;;;;;;5083881;28;20041;-71
2021/11/02 08:45:12;;;;;;;4.90;1.17;;;13.90;99.90;;;;;;5062946;28;20044;-72
2021/11/02 08:47:43;;;;;;;3.08;1.20;;;13.90;99.90;;;;;;5081490;28;20036;-72
2021/11/02 08:50:12;;;;;;;6.70;1.30;;;14.00;99.90;;;;;;5069428;28;20120;-71
2021/11/02 08:52:49;;;;;;;2.75;1.10;;;14.10;99.90;;;;;;5067600;28;20041;-71
2021/11/02 08:55:15;;;;;;;7.28;1.08;;;14.10;99.90;;;;;;5063773;28;20086;-71
2021/11/02 08:57:42;;;;;;;4.85;1.40;;;14.10;99.90;;;;;;5065337;28;20036;-71
2021/11/02 09:00:08;;;;;;;4.72;1.50;;;14.10;99.90;;;;;;5061817;28;20111;-72
2021/11/02 09:02:36;;;;;;;3.80;0.70;;;14.10;99.90;;;;;;5068649;28;21179;-70
2021/11/02 09:05:14;;;;;;;1.48;0.80;;;14.10;99.90;;;;;;5066954;28;20031;-71
2021/11/02 09:07:44;;;;;;;2.20;0.88;;;14.00;99.90;;;;;;5062143;28;20029;-70
2021/11/02 09:10:13;;;;;;;1.10;0.98;;;13.90;99.90;;;;;;5071488;28;20031;-70
2021/11/02 09:12:44;;;;;;;1.05;0.90;;;13.80;99.90;;;;;;5076335;28;20056;-70
2021/11/02 09:15:10;;;;;;;1.58;0.60;;;13.70;99.90;;;;;;5093080;28;20039;-70
2021/11/02 09:17:47;;;;;;;0.63;0.63;;;13.60;99.90;;;;;;5093517;28;20024;-71
2021/11/02 09:20:15;;;;;;;1.42;1.20;;;13.50;99.90;;;;;;5070503;28;20158;-71
2021/11/02 09:22:42;;;;;;;3.90;1.00;;;13.50;99.90;;;;;;5070109;28;20025;-69
2021/11/02 09:25:09;;;;;;;1.83;1.02;;;13.50;99.90;;;;;;5073832;28;20580;-72
2021/11/02 09:27:36;;;;;;;1.38;0.80;;;13.40;99.90;;;;;;5063810;28;20112;-70
2021/11/02 09:30:04;;;;;;;1.40;0.90;;;13.30;99.90;;;;;;5072023;28;20037;-71
2021/11/02 09:32:30;;;;;;;2.40;0.82;;;13.30;99.90;;;;;;5065469;28;20392;-70
2021/11/02 09:34:56;;;;;;;2.47;0.68;;;13.30;99.90;;;;;;5073450;28;20112;-71
2021/11/02 09:37:38;;;;;;;2.33;0.80;;;13.30;99.90;;;;;;5073243;28;20075;-70
2021/11/02 09:40:37;;;;;;;1.15;0.70;;;13.30;99.90;;;;;;5085307;28;20152;-72
2021/11/02 09:43:31;;;;;;;2.50;0.80;;;13.30;99.90;;;;;;5074930;28;20669;-71
2021/11/02 09:46:36;;;;;;;2.80;0.80;;;13.40;99.90;;;;;;5092249;28;20032;-72
2021/11/02 09:49:52;;;;;;;0.40;0.40;;;13.40;99.90;;;;;;5059197;28;20041;-71
2021/11/02 09:52:34;;;;;;;7.18;0.60;;;13.40;99.90;;;;;;5063255;28;20035;-72
2021/11/02 09:55:25;;;;;;;0.45;0.45;;;13.50;99.90;;;;;;5060239;28;20032;-71
2021/11/02 09:57:56;;;;;;;1.60;0.50;;;13.50;99.90;;;;;;5041105;28;20037;-72
2021/11/02 10:00:59;;;;;;;1.73;0.57;;;13.50;99.90;;;;;;5060805;28;20428;-72
2021/11/02 10:03:51;;;;;;;0.70;0.70;;;13.50;99.90;;;;;;5061206;28;20065;-71
2021/11/02 10:06:43;;;;;;;1.38;0.50;;;13.50;99.90;;;;;;5059673;28;20025;-72
2021/11/02 10:09:16;;;;;;;;;;;13.60;99.90;;;;;;5059491;28;20037;-70
2021/11/02 10:12:02;;;;;;;1.92;0.70;;;13.70;99.90;;;;;;5060298;28;20322;-72
2021/11/02 10:14:46;;;;;;;1.38;0.65;;;13.70;99.90;;;;;;5059749;28;20017;-72
2021/11/02 10:17:33;;;;;;;0.60;0.60;;;13.80;99.90;;;;;;5055373;28;20043;-72
2021/11/02 10:20:19;;;;;;;0.80;0.80;;;13.80;99.90;;;;;;5041226;28;20436;-72
2021/11/02 10:22:54;;;;;;;0.60;0.60;;;13.90;99.90;;;;;;5057140;28;20056;-72
2021/11/02 10:25:51;;;;;;;1.13;0.60;;;13.90;99.90;;;;;;5063733;28;20079;-71
2021/11/02 10:28:50;;;;;;;1.60;0.80;;;13.90;99.90;;;;;;5063390;28;20104;-71
2021/11/02 10:31:49;;;;;;;4.28;0.70;;;13.90;99.90;;;;;;5064173;28;20178;-72
2021/11/02 10:34:34;;;;;;;1.70;0.70;;;13.90;99.90;;;;;;5064499;28;20056;-71
2021/11/02 10:37:25;;;;;;;0.95;0.70;;;14.00;99.90;;;;;;5069959;28;20493;-71
2021/11/02 10:40:03;;;;;;;0.85;0.85;;;14.00;99.90;;;;;;5071647;28;20473;-72
2021/11/02 10:43:09;;;;;;;0.55;0.50;;;14.00;99.90;;;;;;5064736;28;20021;-71
2021/11/02 10:45:37;;;;;;;1.10;0.63;;;14.10;99.90;;;;;;5065317;28;20504;-72
2021/11/02 10:48:11;;;;;;;3.22;0.88;;;14.00;99.90;;;;;;5062414;28;20041;-71
2021/11/02 10:50:48;;;;;;;0.95;0.85;;;14.10;99.90;;;;;;5066108;28;20032;-71
2021/11/02 10:53:35;;;;;;;1.20;0.82;;;14.10;99.90;;;;;;5056729;28;20040;-72
2021/11/02 10:56:43;;;;;;;1.05;0.85;;;14.20;99.90;;;;;;5058374;28;20037;-72
2021/11/02 10:59:14;;;;;;;0.50;0.50;;;14.10;99.90;;;;;;5067368;28;20036;-71
2021/11/02 11:01:42;;;;;;;1.10;0.90;;;14.10;99.90;;;;;;5064926;28;20378;-71
2021/11/02 11:04:11;;;;;;;3.65;0.80;;;14.20;99.90;;;;;;5054278;28;20036;-72
2021/11/02 11:06:42;;;;;;;1.50;0.80;;;14.10;99.90;;;;;;5070823;28;20029;-72
2021/11/02 11:09:11;;;;;;;4.47;1.10;;;14.20;99.90;;;;;;5069271;28;20097;-72
2021/11/02 11:11:41;;;;;;;1.70;0.70;;;14.30;99.90;;;;;;5070255;28;20035;-70
2021/11/02 11:14:13;;;;;;;1.35;0.85;;;14.30;99.90;;;;;;5068454;28;20059;-71
2021/11/02 11:16:46;;;;;;;2.03;0.75;;;14.30;99.90;;;;;;5058176;28;20025;-72
2021/11/02 11:19:39;;;;;;;0.65;0.65;;;14.30;99.90;;;;;;5050532;28;20043;-72
2021/11/02 11:22:05;;;;;;;2.90;0.50;;;14.40;99.90;;;;;;5070094;28;20120;-72
2021/11/02 11:24:49;;;;;;;1.40;0.70;;;14.40;99.90;;;;;;5070407;28;20500;-71
2021/11/02 11:27:18;;;;;;;1.30;0.75;;;14.50;99.90;;;;;;5069376;28;20401;-72
2021/11/02 11:29:46;;;;;;;0.70;0.50;;;14.60;99.90;;;;;;5069746;28;20063;-71
2021/11/02 11:32:15;;;;;;;1.30;0.70;;;14.60;99.90;;;;;;5072228;28;20020;-73
2021/11/02 11:34:45;;;;;;;1.25;0.50;;;14.70;99.90;;;;;;5071541;28;20418;-71
2021/11/02 11:37:13;;;;;;;0.77;0.60;;;14.80;99.90;;;;;;5070262;28;20029;-70
2021/11/02 11:39:40;;;;;;;1.90;0.63;;;14.70;99.90;;;;;;5068149;28;20024;-72
2021/11/02 11:42:06;;;;;;;0.55;0.50;;;14.80;99.90;;;;;;5062020;28;20037;-72
2021/11/02 11:44:32;;;;;;;0.80;0.60;;;14.90;99.90;;;;;;5058912;28;20104;-72
2021/11/02 11:47:09;;;;;;;0.57;0.57;;;15.00;99.90;;;;;;5062381;28;20507;-71
2021/11/02 11:49:37;;;;;;;1.73;0.70;;;15.00;99.90;;;;;;5067478;28;20044;-71
2021/11/02 11:52:05;;;;;;;0.57;0.50;;;15.10;99.90;;;;;;5071118;28;20043;-71
2021/11/02 11:54:49;;;;;;;1.55;0.70;;;15.20;99.90;;;;;;5062813;28;20056;-71
2021/11/02 11:57:34;;;;;;;1.02;0.60;;;15.20;99.90;;;;;;5056862;28;20058;-71
2021/11/02 12:00:19;;;;;;;0.50;0.50;;;15.20;99.90;;;;;;5056997;28;20050;-71
2021/11/02 12:03:01;;;;;;;0.63;0.50;;;15.40;99.90;;;;;;5054885;28;20400;-72
2021/11/02 12:05:29;;;;;;;0.68;0.60;;;15.40;99.90;;;;;;5060939;28;20076;-72
2021/11/02 12:08:37;;;;;;;0.80;0.60;;;15.60;99.90;;;;;;5067853;28;20369;-71
2021/11/02 12:11:04;;;;;;;1.30;1.20;;;15.60;99.90;;;;;;4993150;28;20494;-71
2021/11/02 12:13:38;;;;;;;0.98;0.70;;;15.70;99.90;;;;;;4991904;28;20130;-71
2021/11/02 12:16:19;;;;;;;2.30;0.63;;;15.80;99.90;;;;;;5026293;28;20032;-71
2021/11/02 12:18:52;;;;;;;1.83;0.65;;;16.00;99.90;;;;;;5050016;28;20036;-71
2021/11/02 12:21:21;;;;;;;1.23;0.85;;;16.10;99.90;;;;;;5066934;28;20045;-72
2021/11/02 12:23:50;;;;;;;0.95;0.75;;;16.30;99.90;;;;;;5061401;28;20029;-72
2021/11/02 12:26:17;;;;;;;1.55;1.00;;;16.40;99.90;;;;;;5064489;28;20033;-72
2021/11/02 12:28:48;;;;;;;0.60;0.45;;;16.50;99.90;;;;;;5054761;28;20076;-72
2021/11/02 12:31:16;;;;;;;1.27;0.60;;;16.60;99.90;;;;;;5068330;28;20032;-72
2021/11/02 12:33:47;;;;;;;2.83;0.82;;;16.60;99.90;;;;;;5061936;28;20094;-72
2021/11/02 12:36:26;;;;;;;1.85;0.50;;;16.70;99.90;;;;;;5055433;28;20024;-71
2021/11/02 12:39:04;;;;;;;0.50;0.50;;;16.60;99.90;;;;;;5063673;28;20056;-73
2021/11/02 12:41:30;;;;;;;2.65;0.45;;;16.60;99.90;;;;;;5059926;28;20103;-72
2021/11/02 12:44:06;;;;;;;0.50;0.50;;;16.70;99.90;;;;;;5060660;28;20500;-72
2021/11/02 12:46:33;;;;;;;0.90;0.80;;;16.70;99.90;;;;;;5061520;28;20029;-72
2021/11/02 12:49:04;;;;;;;1.60;1.00;;;16.70;99.90;;;;;;5058462;28;20045;-73
2021/11/02 12:51:35;;;;;;;4.65;0.68;;;16.80;99.90;;;;;;5059473;28;20423;-73
2021/11/02 12:54:05;;;;;;;2.63;0.80;;;16.90;99.90;;;;;;5073644;28;20421;-72
2021/11/02 12:56:34;;;;;;;1.58;0.90;;;16.90;99.90;;;;;;5069916;28;20037;-72
2021/11/02 12:59:12;;;;;;;1.13;0.60;;;16.80;99.90;;;;;;5062748;28;20056;-71
2021/11/02 13:01:39;;;;;;;1.48;0.70;;;16.90;99.90;;;;;;5068120;28;20032;-72
2021/11/02 13:04:09;;;;;;;1.17;0.70;;;16.90;99.90;;;;;;5062271;28;20023;-71
2021/11/02 13:06:50;;;;;;;6.75;0.93;;;16.80;99.90;;;;;;5057813;28;20501;-73
2021/11/02 13:09:21;;;;;;;3.47;0.90;;;16.90;99.90;;;;;;5061193;28;20045;-73
2021/11/02 13:12:11;;;;;;;1.02;0.80;;;16.90;99.90;;;;;;5052972;28;20086;-73
2021/11/02 13:14:45;;;;;;;4.72;1.10;;;17.00;99.90;;;;;;5060302;28;20056;-72
2021/11/02 13:17:13;;;;;;;3.22;1.00;;;17.10;99.90;;;;;;5048594;28;20120;-72
2021/11/02 13:19:42;;;;;;;2.85;0.70;;;17.10;99.90;;;;;;5065019;28;20376;-73
2021/11/02 13:22:13;;;;;;;1.05;0.77;;;17.10;99.90;;;;;;5072118;28;20432;-72
2021/11/02 13:24:39;;;;;;;0.70;0.70;;;17.10;99.90;;;;;;5062929;28;20028;-73
2021/11/02 13:27:08;;;;;;;3.80;0.80;;;17.10;99.90;;;;;;5038335;28;20020;-72
2021/11/02 13:29:34;;;;;;;1.38;0.90;;;17.10;99.90;;;;;;5062746;28;20119;-72
2021/11/02 13:32:06;;;;;;;0.75;0.75;;;17.10;99.90;;;;;;5066356;28;20032;-73
2021/11/02 13:34:33;;;;;;;3.50;0.90;;;17.10;99.90;;;;;;5056893;28;20032;-72
2021/11/02 13:37:11;;;;;;;4.90;0.88;;;17.10;99.90;;;;;;5053724;28;20036;-73
2021/11/02 13:40:02;;;;;;;1.10;1.00;;;17.10;99.90;;;;;;5046497;28;20084;-73
2021/11/02 13:42:48;;;;;;;4.32;1.00;;;17.20;99.90;;;;;;5063977;28;20024;-73
2021/11/02 13:45:18;;;;;;;7.20;2.25;;;17.20;99.90;;;;;;5068561;28;20062;-72
2021/11/02 13:47:44;;;;;;;1.90;0.90;;;17.30;99.90;;;;;;5065979;28;20116;-72
2021/11/02 13:50:10;;;;;;;3.95;1.60;;;17.40;99.90;;;;;;5060631;28;20568;-72
2021/11/02 13:52:36;;;;;;;6.32;1.10;;;17.50;99.90;;;;;;5063844;28;20120;-72
2021/11/02 13:55:03;;;;;;;3.10;0.98;;;17.50;99.90;;;;;;5064412;28;20112;-71
2021/11/02 13:57:29;;;;;;;7.15;1.30;;;17.50;99.90;;;;;;5063226;28;20065;-72
2021/11/02 13:59:54;;;;;;;3.60;1.17;;;17.60;99.90;;;;;;5058107;28;20444;-73
2021/11/02 14:02:22;;;;;;;2.17;1.13;;;17.70;99.90;;;;;;5062266;28;20550;-73
2021/11/02 14:04:51;;;;;;;9.27;2.22;;;17.80;99.90;;;;;;5054285;28;20029;-73
2021/11/02 14:07:27;;;;;;;28.45;7.20;;;17.90;99.90;;;;;;5054082;28;20032;-73
2021/11/02 14:10:05;;;;;;;6.28;1.02;;;17.90;99.90;;;;;;5059334;28;20048;-73
2021/11/02 14:12:40;;;;;;;3.97;1.30;;;18.00;99.90;;;;;;5058977;28;20062;-71
2021/11/02 14:15:11;;;;;;;2.58;0.82;;;18.00;99.90;;;;;;5058027;28;20086;-72
2021/11/02 14:17:52;;;;;;;1.90;0.60;;;18.00;99.90;;;;;;5054480;28;20052;-71
2021/11/02 14:20:32;;;;;;;4.20;0.90;;;17.90;99.90;;;;;;5038876;28;20441;-71
2021/11/02 14:23:03;;;;;;;5.07;1.90;;;17.80;99.90;;;;;;5070859;28;20067;-72
2021/11/02 14:25:34;;;;;;;28.70;13.95;;;17.70;99.90;;;;;;5043206;28;20396;-72
2021/11/02 14:28:00;;;;;;;2.05;1.40;;;17.70;99.90;;;;;;5071874;28;20542;-72
2021/11/02 14:30:32;;;;;;;9.15;5.45;;;17.60;99.90;;;;;;5069448;28;20415;-72
2021/11/02 14:33:09;;;;;;;4.05;2.65;;;17.60;99.90;;;;;;5053452;28;20037;-72
2021/11/02 14:35:53;;;;;;;1.90;1.73;;;17.60;99.90;;;;;;5064272;28;20458;-73
2021/11/02 14:38:28;;;;;;;3.65;1.50;;;17.60;99.90;;;;;;5055290;28;20033;-72
2021/11/02 14:40:56;;;;;;;3.38;1.58;;;17.50;99.90;;;;;;5061072;28;20388;-72
2021/11/02 14:43:25;;;;;;;2.67;1.65;;;17.50;99.90;;;;;;5066897;28;20021;-73
2021/11/02 14:45:53;;;;;;;3.33;2.00;;;17.40;99.90;;;;;;5058647;28;20381;-73
2021/11/02 14:48:41;;;;;;;6.90;2.20;;;17.40;99.90;;;;;;5064264;28;20053;-71
2021/11/02 14:51:13;;;;;;;3.45;1.45;;;17.40;99.90;;;;;;5058441;28;20056;-72
2021/11/02 14:53:42;;;;;;;3.25;1.27;;;17.30;99.90;;;;;;5066175;28;20861;-72
2021/11/02 14:56:28;;;;;;;5.97;1.42;;;17.30;99.90;;;;;;5070572;28;20094;-72
2021/11/02 14:58:58;;;;;;;8.27;1.20;;;17.20;99.90;;;;;;5042939;28;20040;-72
2021/11/02 15:01:47;;;;;;;4.75;1.15;;;17.10;99.90;;;;;;5067649;28;20439;-72
2021/11/02 15:04:19;;;;;;;5.78;1.52;;;17.10;99.90;;;;;;5070923;28;20048;-72
2021/11/02 15:07:00;;;;;;;11.13;2.88;;;17.00;99.90;;;;;;5061373;28;20120;-72
2021/11/02 15:09:32;;;;;;;9.00;2.45;;;16.90;99.90;;;;;;5063060;28;20040;-71
2021/11/02 15:11:58;;;;;;;5.88;2.45;;;16.80;99.90;;;;;;5049498;28;20043;-71
2021/11/02 15:14:27;;;;;;;3.88;1.83;;;16.70;99.90;;;;;;5065536;28;20037;-72
2021/11/02 15:16:59;;;;;;;5.30;1.50;;;16.60;99.90;;;;;;5073162;28;20025;-71
2021/11/02 15:19:30;;;;;;;8.27;1.17;;;16.60;99.90;;;;;;5059160;28;20037;-71
2021/11/02 15:22:03;;;;;;;1.77;1.05;;;16.40;99.90;;;;;;5072468;28;20029;-71
2021/11/02 15:24:59;;;;;;;3.47;1.75;;;16.40;99.90;;;;;;5074841;28;20036;-71
2021/11/02 15:27:28;;;;;;;5.13;1.30;;;16.20;99.90;;;;;;5068917;28;20028;-71
2021/11/02 15:29:59;;;;;;;15.45;2.20;;;16.20;99.90;;;;;;5068460;28;20075;-71
2021/11/02 15:32:27;;;;;;;3.85;1.60;;;16.10;99.90;;;;;;5069632;28;20033;-71
2021/11/02 15:34:59;;;;;;;4.03;2.00;;;16.00;99.90;;;;;;5044735;28;20070;-70
2021/11/02 15:37:36;;;;;;;9.88;4.78;;;16.00;99.90;;;;;;5068776;28;20116;-71
2021/11/02 15:40:18;;;;;;;7.70;3.90;;;15.90;99.90;;;;;;5068711;28;20511;-71
2021/11/02 15:42:54;;;;;;;7.80;4.05;;;15.80;99.90;;;;;;5067543;28;20076;-70
2021/11/02 15:45:19;;;;;;;5.72;1.67;;;15.80;99.90;;;;;;5070899;28;20029;-72
2021/11/02 15:47:49;;;;;;;5.68;1.20;;;15.70;99.90;;;;;;5055772;28;20028;-71
2021/11/02 15:50:25;;;;;;;2.15;1.25;;;15.70;99.90;;;;;;5066800;28;20492;-71
2021/11/02 15:53:02;;;;;;;2.28;1.05;;;15.60;99.90;;;;;;5056443;28;20043;-71
2021/11/02 15:55:29;;;;;;;4.30;1.35;;;15.60;99.90;;;;;;5074436;28;20032;-71
2021/11/02 15:57:57;;;;;;;4.60;1.90;;;15.60;99.90;;;;;;5074175;28;20035;-71
2021/11/02 16:00:34;;;;;;;3.97;1.85;;;15.50;99.90;;;;;;5069155;28;20032;-71
2021/11/02 16:03:01;;;;;;;5.13;2.80;;;15.50;99.90;;;;;;5070122;28;20040;-71
2021/11/02 16:05:32;;;;;;;8.02;2.42;;;15.40;99.90;;;;;;5074408;28;20033;-72
2021/11/02 16:08:17;;;;;;;9.02;2.92;;;15.40;99.90;;;;;;5074089;28;20017;-70
2021/11/02 16:10:44;;;;;;;6.85;2.10;;;15.30;99.90;;;;;;5067271;28;20101;-70
2021/11/02 16:13:10;;;;;;;6.22;2.30;;;15.30;99.90;;;;;;5073632;28;20029;-71
2021/11/02 16:15:42;;;;;;;6.78;2.97;;;15.20;99.90;;;;;;5067370;28;20068;-70
2021/11/02 16:18:28;;;;;;;9.50;2.88;;;15.20;99.90;;;;;;5068355;28;20052;-70
2021/11/02 16:20:58;;;;;;;7.20;3.90;;;15.10;99.90;;;;;;5073757;28;20048;-71
2021/11/02 16:23:37;;;;;;;14.27;5.38;;;15.10;99.90;;;;;;5073976;28;20115;-71
2021/11/02 16:26:15;;;;;;;9.07;3.38;;;15.00;99.90;;;;;;5074145;28;20029;-70
2021/11/02 16:28:40;;;;;;;9.57;2.92;;;14.90;99.90;;;;;;5063588;28;20028;-70
2021/11/02 16:31:08;;;;;;;6.20;2.92;;;14.90;99.90;;;;;;5073952;28;20392;-70
2021/11/02 16:33:40;;;;;;;8.82;4.22;;;14.80;99.90;;;;;;5073250;28;20043;-71
2021/11/02 16:36:24;;;;;;;8.10;3.72;;;14.80;99.90;;;;;;5041663;28;20033;-71
2021/11/02 16:38:52;;;;;;;6.97;3.00;;;14.80;99.90;;;;;;5070347;28;20370;-70
2021/11/02 16:41:44;;;;;;;4.43;2.20;;;14.70;99.90;;;;;;5065953;28;20038;-70
2021/11/02 16:44:14;;;;;;;13.43;3.25;;;14.70;99.90;;;;;;5055608;28;20546;-70
2021/11/02 16:46:46;;;;;;;11.75;4.90;;;14.70;99.90;;;;;;5073510;28;20031;-71
2021/11/02 16:49:24;;;;;;;9.52;4.72;;;14.60;99.90;;;;;;5048534;28;20061;-71
2021/11/02 16:52:04;;;;;;;16.95;6.65;;;14.60;99.90;;;;;;5061279;28;20036;-70
2021/11/02 16:54:36;;;;;;;7.80;5.00;;;14.50;99.90;;;;;;5061677;28;20672;-70
2021/11/02 16:57:07;;;;;;;;;;;14.40;99.90;;;;;;5086541;28;20427;-70
2021/11/02 16:59:42;;;;;;;14.60;6.40;;;14.40;99.90;;;;;;5074313;28;19908;-70
2021/11/02 17:02:43;;;;;;;17.88;12.07;;;14.40;99.90;;;;;;5080592;28;20031;-70
2021/11/02 17:05:16;;;;;;;30.48;19.15;;;14.40;99.90;;;;;;5085589;28;20400;-70
2021/11/02 17:08:03;;;;;;;25.10;11.60;;;14.40;99.90;;;;;;5093424;28;20046;-71
2021/11/02 17:10:39;;;;;;;15.43;7.57;;;14.30;99.90;;;;;;5079894;28;20512;-70
2021/11/02 17:13:06;;;;;;;14.75;8.93;;;14.30;99.90;;;;;;5092876;28;20035;-71
2021/11/02 17:15:59;;;;;;;17.27;9.55;;;14.40;99.90;;;;;;5093281;28;20416;-70
2021/11/02 17:18:52;;;;;;;19.13;7.30;;;14.40;99.90;;;;;;5093004;28;20075;-70
2021/11/02 17:21:22;;;;;;;15.50;8.73;;;14.40;99.90;;;;;;5081826;28;20078;-71
2021/11/02 17:23:49;;;;;;;19.45;8.73;;;14.30;99.90;;;;;;5093462;28;20032;-70
2021/11/02 17:26:17;;;;;;;20.27;6.00;;;14.40;99.90;;;;;;5072012;22;20050;-70
2021/11/02 17:28:48;;;;;;;8.93;5.70;;;14.30;99.90;;;;;;5032543;28;20379;-70
2021/11/02 17:31:16;;;;;;;11.00;6.72;;;14.30;99.90;;;;;;5025405;28;20401;-70
2021/11/02 17:33:42;;;;;;;18.52;10.05;;;14.30;99.90;;;;;;5015991;28;20035;-70
2021/11/02 17:36:12;;;;;;;13.20;7.63;;;14.30;99.90;;;;;;5032435;28;20156;-70
2021/11/02 17:38:40;;;;;;;12.57;7.72;;;14.30;99.90;;;;;;5025182;28;20036;-70
2021/11/02 17:41:07;;;;;;;14.75;7.32;;;14.30;99.90;;;;;;5031646;28;20112;-70
2021/11/02 17:43:34;;;;;;;17.00;9.18;;;14.30;99.90;;;;;;5031980;28;20516;-70
2021/11/02 17:46:01;;;;;;;15.65;9.07;;;14.30;99.90;;;;;;5031730;28;20029;-70
2021/11/02 17:48:28;;;;;;;17.00;10.40;;;14.30;99.90;;;;;;5032645;28;20037;-70
2021/11/02 17:50:54;;;;;;;18.58;8.50;;;14.30;99.90;;;;;;5012623;28;20688;-70
2021/11/02 17:53:20;;;;;;;21.63;8.93;;;14.20;99.90;;;;;;5028523;28;20032;-70
2021/11/02 17:55:47;;;;;;;19.50;7.78;;;14.10;99.90;;;;;;5032564;28;20069;-70
2021/11/02 17:58:13;;;;;;;21.27;8.25;;;14.20;99.90;;;;;;5032569;28;20037;-70
2021/11/02 18:00:40;;;;;;;15.15;8.88;;;14.10;99.90;;;;;;5032175;28;20544;-71
2021/11/02 18:03:08;;;;;;;12.75;8.02;;;14.10;99.90;;;;;;5030519;28;20117;-71
2021/11/02 18:05:34;;;;;;;16.77;8.35;;;14.10;99.90;;;;;;5031662;28;20053;-71
2021/11/02 18:08:01;;;;;;;22.60;13.75;;;14.00;99.90;;;;;;5031425;28;20059;-71
2021/11/02 18:10:28;;;;;;;53.17;30.52;;;14.00;99.90;;;;;;5031880;28;20037;-70